sensor_id;sensor_type;location;lat;lon;timestamp;P1;durP1;ratioP1;P2;durP2;ratioP2
36593;SDS011;22603;47.900;8.146;2023-06-10T00:00:15;8.53;;;3.80;;
36593;SDS011;22603;47.900;8.146;2023-06-10T00:03:03;9.43;;;4.00;;
36593;SDS011;22603;47.900;8.146;2023-06-10T00:05:50;12.53;;;3.90;;
36593;SDS011;22603;47.900;8.146;2023-06-10T00:08:37;9.87;;;4.67;;
36593;SDS011;22603;47.900;8.146;2023-06-10T00:11:25;9.67;;;3.70;;
36593;SDS011;22603;47.900;8.146;2023-06-10T00:14:13;9.40;;;4.10;;
36593;SDS011;22603;47.900;8.146;2023-06-10T00:17:00;10.00;;;4.00;;
36593;SDS011;22603;47.900;8.146;2023-06-10T00:19:47;9.17;;;3.80;;
36593;SDS011;22603;47.900;8.146;2023-06-10T00:22:35;8.13;;;3.73;;
36593;SDS011;22603;47.900;8.146;2023-06-10T00:25:22;9.00;;;4.30;;
36593;SDS011;22603;47.900;8.146;2023-06-10T00:28:10;9.27;;;4.03;;
36593;SDS011;22603;47.900;8.146;2023-06-10T00:30:59;9.97;;;4.43;;
36593;SDS011;22603;47.900;8.146;2023-06-10T00:33:46;8.97;;;3.90;;
36593;SDS011;22603;47.900;8.146;2023-06-10T00:36:33;9.57;;;4.23;;
36593;SDS011;22603;47.900;8.146;2023-06-10T00:39:21;8.90;;;3.83;;
36593;SDS011;22603;47.900;8.146;2023-06-10T00:42:08;9.63;;;4.50;;
36593;SDS011;22603;47.900;8.146;2023-06-10T00:44:55;9.17;;;4.37;;
36593;SDS011;22603;47.900;8.146;2023-06-10T00:47:44;17.43;;;4.13;;
36593;SDS011;22603;47.900;8.146;2023-06-10T00:50:31;9.10;;;4.10;;
36593;SDS011;22603;47.900;8.146;2023-06-10T00:53:19;9.10;;;4.20;;
36593;SDS011;22603;47.900;8.146;2023-06-10T00:56:08;9.73;;;4.33;;
36593;SDS011;22603;47.900;8.146;2023-06-10T00:58:55;8.43;;;4.00;;
36593;SDS011;22603;47.900;8.146;2023-06-10T01:01:45;9.00;;;3.87;;
36593;SDS011;22603;47.900;8.146;2023-06-10T01:04:34;8.97;;;3.67;;
36593;SDS011;22603;47.900;8.146;2023-06-10T01:07:23;8.77;;;3.70;;
36593;SDS011;22603;47.900;8.146;2023-06-10T01:10:15;10.33;;;4.87;;
36593;SDS011;22603;47.900;8.146;2023-06-10T01:13:07;8.33;;;4.47;;
36593;SDS011;22603;47.900;8.146;2023-06-10T01:15:56;8.83;;;4.20;;
36593;SDS011;22603;47.900;8.146;2023-06-10T01:18:44;8.27;;;4.20;;
36593;SDS011;22603;47.900;8.146;2023-06-10T01:21:33;10.07;;;4.53;;
36593;SDS011;22603;47.900;8.146;2023-06-10T01:24:20;10.07;;;4.23;;
36593;SDS011;22603;47.900;8.146;2023-06-10T01:27:09;9.57;;;4.07;;
36593;SDS011;22603;47.900;8.146;2023-06-10T01:30:03;9.53;;;4.10;;
36593;SDS011;22603;47.900;8.146;2023-06-10T01:32:54;8.10;;;4.00;;
36593;SDS011;22603;47.900;8.146;2023-06-10T01:35:42;11.70;;;4.00;;
36593;SDS011;22603;47.900;8.146;2023-06-10T01:38:38;15.23;;;4.60;;
36593;SDS011;22603;47.900;8.146;2023-06-10T01:41:27;8.53;;;3.93;;
36593;SDS011;22603;47.900;8.146;2023-06-10T01:44:17;10.43;;;4.80;;
36593;SDS011;22603;47.900;8.146;2023-06-10T01:47:05;7.93;;;3.70;;
36593;SDS011;22603;47.900;8.146;2023-06-10T01:49:52;9.67;;;4.40;;
36593;SDS011;22603;47.900;8.146;2023-06-10T01:52:39;9.20;;;4.20;;
36593;SDS011;22603;47.900;8.146;2023-06-10T01:55:27;10.37;;;4.03;;
36593;SDS011;22603;47.900;8.146;2023-06-10T01:58:15;11.70;;;4.50;;
36593;SDS011;22603;47.900;8.146;2023-06-10T02:01:01;8.33;;;3.73;;
36593;SDS011;22603;47.900;8.146;2023-06-10T02:03:49;9.67;;;4.07;;
36593;SDS011;22603;47.900;8.146;2023-06-10T02:06:36;8.47;;;4.50;;
36593;SDS011;22603;47.900;8.146;2023-06-10T02:09:23;9.03;;;3.67;;
36593;SDS011;22603;47.900;8.146;2023-06-10T02:12:11;9.77;;;4.00;;
36593;SDS011;22603;47.900;8.146;2023-06-10T02:15:02;10.73;;;4.47;;
36593;SDS011;22603;47.900;8.146;2023-06-10T02:17:49;9.83;;;4.30;;
36593;SDS011;22603;47.900;8.146;2023-06-10T02:20:36;9.27;;;4.67;;
36593;SDS011;22603;47.900;8.146;2023-06-10T02:23:23;8.47;;;4.27;;
36593;SDS011;22603;47.900;8.146;2023-06-10T02:26:10;9.17;;;4.23;;
36593;SDS011;22603;47.900;8.146;2023-06-10T02:28:58;10.60;;;4.37;;
36593;SDS011;22603;47.900;8.146;2023-06-10T02:31:45;9.80;;;4.17;;
36593;SDS011;22603;47.900;8.146;2023-06-10T02:34:32;9.60;;;3.97;;
36593;SDS011;22603;47.900;8.146;2023-06-10T02:37:19;10.17;;;4.10;;
36593;SDS011;22603;47.900;8.146;2023-06-10T02:40:07;9.30;;;4.77;;
36593;SDS011;22603;47.900;8.146;2023-06-10T02:42:55;9.87;;;4.53;;
36593;SDS011;22603;47.900;8.146;2023-06-10T02:45:43;10.40;;;4.93;;
36593;SDS011;22603;47.900;8.146;2023-06-10T02:48:30;8.43;;;4.17;;
36593;SDS011;22603;47.900;8.146;2023-06-10T02:51:18;9.80;;;4.43;;
36593;SDS011;22603;47.900;8.146;2023-06-10T02:54:06;9.67;;;4.60;;
36593;SDS011;22603;47.900;8.146;2023-06-10T02:56:53;8.77;;;4.50;;
36593;SDS011;22603;47.900;8.146;2023-06-10T02:59:41;9.87;;;4.73;;
36593;SDS011;22603;47.900;8.146;2023-06-10T03:02:29;9.60;;;4.23;;
36593;SDS011;22603;47.900;8.146;2023-06-10T03:05:17;12.53;;;5.53;;
36593;SDS011;22603;47.900;8.146;2023-06-10T03:08:04;13.97;;;4.67;;
36593;SDS011;22603;47.900;8.146;2023-06-10T03:10:51;9.03;;;4.30;;
36593;SDS011;22603;47.900;8.146;2023-06-10T03:13:38;9.77;;;4.83;;
36593;SDS011;22603;47.900;8.146;2023-06-10T03:16:25;13.20;;;5.07;;
36593;SDS011;22603;47.900;8.146;2023-06-10T03:19:14;8.60;;;4.33;;
36593;SDS011;22603;47.900;8.146;2023-06-10T03:22:07;12.60;;;4.93;;
36593;SDS011;22603;47.900;8.146;2023-06-10T03:24:57;11.43;;;4.97;;
36593;SDS011;22603;47.900;8.146;2023-06-10T03:27:44;9.93;;;4.57;;
36593;SDS011;22603;47.900;8.146;2023-06-10T03:30:31;10.33;;;4.57;;
36593;SDS011;22603;47.900;8.146;2023-06-10T03:33:19;9.70;;;4.43;;
36593;SDS011;22603;47.900;8.146;2023-06-10T03:36:07;9.47;;;4.50;;
36593;SDS011;22603;47.900;8.146;2023-06-10T03:38:55;8.20;;;4.10;;
36593;SDS011;22603;47.900;8.146;2023-06-10T03:41:42;10.23;;;4.90;;
36593;SDS011;22603;47.900;8.146;2023-06-10T03:44:29;9.97;;;4.93;;
36593;SDS011;22603;47.900;8.146;2023-06-10T03:47:16;10.33;;;4.73;;
36593;SDS011;22603;47.900;8.146;2023-06-10T03:50:04;10.13;;;4.83;;
36593;SDS011;22603;47.900;8.146;2023-06-10T03:52:53;16.07;;;4.73;;
36593;SDS011;22603;47.900;8.146;2023-06-10T03:55:39;10.03;;;4.83;;
36593;SDS011;22603;47.900;8.146;2023-06-10T03:58:27;10.93;;;4.90;;
36593;SDS011;22603;47.900;8.146;2023-06-10T04:01:14;11.20;;;4.47;;
36593;SDS011;22603;47.900;8.146;2023-06-10T04:04:03;10.00;;;5.27;;
36593;SDS011;22603;47.900;8.146;2023-06-10T04:06:50;10.80;;;4.97;;
36593;SDS011;22603;47.900;8.146;2023-06-10T04:09:39;13.03;;;5.20;;
36593;SDS011;22603;47.900;8.146;2023-06-10T04:12:25;11.20;;;4.80;;
36593;SDS011;22603;47.900;8.146;2023-06-10T04:15:12;10.63;;;5.03;;
36593;SDS011;22603;47.900;8.146;2023-06-10T04:18:00;11.30;;;5.23;;
36593;SDS011;22603;47.900;8.146;2023-06-10T04:20:47;11.67;;;4.87;;
36593;SDS011;22603;47.900;8.146;2023-06-10T04:23:34;11.00;;;4.90;;
36593;SDS011;22603;47.900;8.146;2023-06-10T04:26:23;10.43;;;5.20;;
36593;SDS011;22603;47.900;8.146;2023-06-10T04:29:11;8.43;;;4.70;;
36593;SDS011;22603;47.900;8.146;2023-06-10T04:31:57;10.83;;;5.40;;
36593;SDS011;22603;47.900;8.146;2023-06-10T04:34:45;10.63;;;5.17;;
36593;SDS011;22603;47.900;8.146;2023-06-10T04:37:32;11.80;;;5.23;;
36593;SDS011;22603;47.900;8.146;2023-06-10T04:40:19;9.40;;;4.93;;
36593;SDS011;22603;47.900;8.146;2023-06-10T04:43:07;10.43;;;5.40;;
36593;SDS011;22603;47.900;8.146;2023-06-10T04:45:54;10.13;;;5.30;;
36593;SDS011;22603;47.900;8.146;2023-06-10T04:48:41;10.13;;;5.23;;
36593;SDS011;22603;47.900;8.146;2023-06-10T04:51:30;11.03;;;4.80;;
36593;SDS011;22603;47.900;8.146;2023-06-10T04:54:17;9.13;;;4.83;;
36593;SDS011;22603;47.900;8.146;2023-06-10T04:57:05;14.50;;;6.00;;
36593;SDS011;22603;47.900;8.146;2023-06-10T04:59:55;12.10;;;5.67;;
36593;SDS011;22603;47.900;8.146;2023-06-10T05:02:42;11.67;;;5.47;;
36593;SDS011;22603;47.900;8.146;2023-06-10T05:05:30;14.17;;;5.90;;
36593;SDS011;22603;47.900;8.146;2023-06-10T05:08:17;11.30;;;5.40;;
36593;SDS011;22603;47.900;8.146;2023-06-10T05:11:04;11.60;;;5.67;;
36593;SDS011;22603;47.900;8.146;2023-06-10T05:13:51;11.77;;;5.37;;
36593;SDS011;22603;47.900;8.146;2023-06-10T05:16:46;12.33;;;6.47;;
36593;SDS011;22603;47.900;8.146;2023-06-10T05:19:35;11.80;;;5.67;;
36593;SDS011;22603;47.900;8.146;2023-06-10T05:22:22;11.10;;;5.93;;
36593;SDS011;22603;47.900;8.146;2023-06-10T05:25:10;12.27;;;6.13;;
36593;SDS011;22603;47.900;8.146;2023-06-10T05:27:57;13.77;;;6.53;;
36593;SDS011;22603;47.900;8.146;2023-06-10T05:30:44;13.30;;;5.50;;
36593;SDS011;22603;47.900;8.146;2023-06-10T05:33:32;11.80;;;6.57;;
36593;SDS011;22603;47.900;8.146;2023-06-10T05:36:19;10.77;;;6.20;;
36593;SDS011;22603;47.900;8.146;2023-06-10T05:39:06;12.03;;;5.57;;
36593;SDS011;22603;47.900;8.146;2023-06-10T05:42:01;12.07;;;6.00;;
36593;SDS011;22603;47.900;8.146;2023-06-10T05:44:48;11.77;;;5.97;;
36593;SDS011;22603;47.900;8.146;2023-06-10T05:47:35;11.77;;;6.33;;
36593;SDS011;22603;47.900;8.146;2023-06-10T05:50:26;11.73;;;6.33;;
36593;SDS011;22603;47.900;8.146;2023-06-10T05:53:14;15.07;;;6.40;;
36593;SDS011;22603;47.900;8.146;2023-06-10T05:56:01;9.90;;;5.37;;
36593;SDS011;22603;47.900;8.146;2023-06-10T05:58:48;12.00;;;5.87;;
36593;SDS011;22603;47.900;8.146;2023-06-10T06:01:36;10.83;;;5.80;;
36593;SDS011;22603;47.900;8.146;2023-06-10T06:04:23;11.53;;;5.97;;
36593;SDS011;22603;47.900;8.146;2023-06-10T06:07:12;11.27;;;5.87;;
36593;SDS011;22603;47.900;8.146;2023-06-10T06:10:01;11.33;;;6.30;;
36593;SDS011;22603;47.900;8.146;2023-06-10T06:12:49;11.47;;;6.17;;
36593;SDS011;22603;47.900;8.146;2023-06-10T06:15:36;12.98;;;6.28;;
36593;SDS011;22603;47.900;8.146;2023-06-10T06:18:23;10.27;;;5.88;;
36593;SDS011;22603;47.900;8.146;2023-06-10T06:21:11;11.25;;;5.65;;
36593;SDS011;22603;47.900;8.146;2023-06-10T06:24:00;14.00;;;6.47;;
36593;SDS011;22603;47.900;8.146;2023-06-10T06:26:47;11.32;;;5.93;;
36593;SDS011;22603;47.900;8.146;2023-06-10T06:29:34;9.77;;;5.60;;
36593;SDS011;22603;47.900;8.146;2023-06-10T06:32:21;10.52;;;5.43;;
36593;SDS011;22603;47.900;8.146;2023-06-10T06:35:10;12.13;;;5.72;;
36593;SDS011;22603;47.900;8.146;2023-06-10T06:37:57;13.68;;;6.30;;
36593;SDS011;22603;47.900;8.146;2023-06-10T06:40:46;10.02;;;5.80;;
36593;SDS011;22603;47.900;8.146;2023-06-10T06:43:33;10.48;;;5.70;;
36593;SDS011;22603;47.900;8.146;2023-06-10T06:46:20;10.80;;;5.43;;
36593;SDS011;22603;47.900;8.146;2023-06-10T06:49:07;10.25;;;5.28;;
36593;SDS011;22603;47.900;8.146;2023-06-10T06:51:54;9.25;;;5.88;;
36593;SDS011;22603;47.900;8.146;2023-06-10T06:54:41;11.35;;;5.90;;
36593;SDS011;22603;47.900;8.146;2023-06-10T06:57:30;14.02;;;6.10;;
36593;SDS011;22603;47.900;8.146;2023-06-10T07:00:20;10.02;;;5.75;;
36593;SDS011;22603;47.900;8.146;2023-06-10T07:03:07;11.02;;;5.88;;
36593;SDS011;22603;47.900;8.146;2023-06-10T07:05:54;10.55;;;5.65;;
36593;SDS011;22603;47.900;8.146;2023-06-10T07:08:41;10.60;;;5.70;;
36593;SDS011;22603;47.900;8.146;2023-06-10T07:11:28;11.63;;;5.90;;
36593;SDS011;22603;47.900;8.146;2023-06-10T07:14:17;12.35;;;5.78;;
36593;SDS011;22603;47.900;8.146;2023-06-10T07:17:04;9.60;;;5.13;;
36593;SDS011;22603;47.900;8.146;2023-06-10T07:19:51;9.85;;;5.32;;
36593;SDS011;22603;47.900;8.146;2023-06-10T07:22:38;9.88;;;5.53;;
36593;SDS011;22603;47.900;8.146;2023-06-10T07:25:25;9.80;;;5.15;;
36593;SDS011;22603;47.900;8.146;2023-06-10T07:28:12;11.88;;;4.85;;
36593;SDS011;22603;47.900;8.146;2023-06-10T07:31:01;10.10;;;4.93;;
36593;SDS011;22603;47.900;8.146;2023-06-10T07:33:48;11.70;;;4.90;;
36593;SDS011;22603;47.900;8.146;2023-06-10T07:36:35;9.13;;;4.95;;
36593;SDS011;22603;47.900;8.146;2023-06-10T07:39:22;11.98;;;4.93;;
36593;SDS011;22603;47.900;8.146;2023-06-10T07:42:10;10.32;;;4.88;;
36593;SDS011;22603;47.900;8.146;2023-06-10T07:44:57;10.68;;;5.25;;
36593;SDS011;22603;47.900;8.146;2023-06-10T07:47:45;10.65;;;5.15;;
36593;SDS011;22603;47.900;8.146;2023-06-10T07:50:32;10.13;;;5.30;;
36593;SDS011;22603;47.900;8.146;2023-06-10T07:53:19;11.85;;;5.10;;
36593;SDS011;22603;47.900;8.146;2023-06-10T07:56:07;9.50;;;5.22;;
36593;SDS011;22603;47.900;8.146;2023-06-10T07:58:53;9.48;;;5.10;;
36593;SDS011;22603;47.900;8.146;2023-06-10T08:01:40;10.27;;;5.32;;
36593;SDS011;22603;47.900;8.146;2023-06-10T08:04:29;9.10;;;5.28;;
36593;SDS011;22603;47.900;8.146;2023-06-10T08:07:16;11.38;;;5.22;;
36593;SDS011;22603;47.900;8.146;2023-06-10T08:10:04;8.68;;;4.78;;
36593;SDS011;22603;47.900;8.146;2023-06-10T08:12:52;10.68;;;5.03;;
36593;SDS011;22603;47.900;8.146;2023-06-10T08:15:39;10.63;;;4.82;;
36593;SDS011;22603;47.900;8.146;2023-06-10T08:18:26;8.20;;;4.68;;
36593;SDS011;22603;47.900;8.146;2023-06-10T08:21:14;10.57;;;4.63;;
36593;SDS011;22603;47.900;8.146;2023-06-10T08:24:01;10.88;;;4.80;;
36593;SDS011;22603;47.900;8.146;2023-06-10T08:26:50;9.07;;;4.88;;
36593;SDS011;22603;47.900;8.146;2023-06-10T08:29:38;8.00;;;4.80;;
36593;SDS011;22603;47.900;8.146;2023-06-10T08:32:27;8.18;;;4.50;;
36593;SDS011;22603;47.900;8.146;2023-06-10T08:35:15;8.48;;;5.00;;
36593;SDS011;22603;47.900;8.146;2023-06-10T08:38:04;10.68;;;4.32;;
36593;SDS011;22603;47.900;8.146;2023-06-10T08:40:53;9.20;;;4.82;;
36593;SDS011;22603;47.900;8.146;2023-06-10T08:43:43;9.98;;;4.85;;
36593;SDS011;22603;47.900;8.146;2023-06-10T08:46:32;8.65;;;4.82;;
36593;SDS011;22603;47.900;8.146;2023-06-10T08:49:21;9.13;;;4.80;;
36593;SDS011;22603;47.900;8.146;2023-06-10T08:52:11;8.98;;;4.63;;
36593;SDS011;22603;47.900;8.146;2023-06-10T08:55:05;10.23;;;4.93;;
36593;SDS011;22603;47.900;8.146;2023-06-10T08:57:57;8.80;;;4.78;;
36593;SDS011;22603;47.900;8.146;2023-06-10T09:00:46;9.02;;;4.75;;
36593;SDS011;22603;47.900;8.146;2023-06-10T09:03:34;8.57;;;4.65;;
36593;SDS011;22603;47.900;8.146;2023-06-10T09:06:23;11.40;;;4.93;;
36593;SDS011;22603;47.900;8.146;2023-06-10T09:09:11;10.90;;;4.78;;
36593;SDS011;22603;47.900;8.146;2023-06-10T09:12:00;9.43;;;5.03;;
36593;SDS011;22603;47.900;8.146;2023-06-10T09:14:48;10.98;;;4.70;;
36593;SDS011;22603;47.900;8.146;2023-06-10T09:17:36;9.43;;;4.57;;
36593;SDS011;22603;47.900;8.146;2023-06-10T09:20:23;9.23;;;5.10;;
36593;SDS011;22603;47.900;8.146;2023-06-10T09:23:10;9.05;;;5.18;;
36593;SDS011;22603;47.900;8.146;2023-06-10T09:25:58;9.10;;;5.00;;
36593;SDS011;22603;47.900;8.146;2023-06-10T09:28:48;10.50;;;4.93;;
36593;SDS011;22603;47.900;8.146;2023-06-10T09:31:36;12.60;;;5.13;;
36593;SDS011;22603;47.900;8.146;2023-06-10T09:34:25;9.27;;;5.20;;
36593;SDS011;22603;47.900;8.146;2023-06-10T09:37:13;8.65;;;4.75;;
36593;SDS011;22603;47.900;8.146;2023-06-10T09:40:06;10.15;;;5.20;;
36593;SDS011;22603;47.900;8.146;2023-06-10T09:42:56;10.07;;;4.55;;
36593;SDS011;22603;47.900;8.146;2023-06-10T09:45:48;9.55;;;4.70;;
36593;SDS011;22603;47.900;8.146;2023-06-10T09:48:40;8.75;;;4.60;;
36593;SDS011;22603;47.900;8.146;2023-06-10T09:51:29;8.77;;;4.78;;
36593;SDS011;22603;47.900;8.146;2023-06-10T09:54:16;9.73;;;4.80;;
36593;SDS011;22603;47.900;8.146;2023-06-10T09:57:06;9.40;;;4.80;;
36593;SDS011;22603;47.900;8.146;2023-06-10T09:59:54;9.55;;;4.93;;
36593;SDS011;22603;47.900;8.146;2023-06-10T10:02:46;8.50;;;4.35;;
36593;SDS011;22603;47.900;8.146;2023-06-10T10:05:35;8.90;;;4.72;;
36593;SDS011;22603;47.900;8.146;2023-06-10T10:08:23;9.60;;;4.75;;
36593;SDS011;22603;47.900;8.146;2023-06-10T10:11:10;8.75;;;4.82;;
36593;SDS011;22603;47.900;8.146;2023-06-10T10:13:58;9.02;;;4.75;;
36593;SDS011;22603;47.900;8.146;2023-06-10T10:16:45;8.55;;;4.70;;
36593;SDS011;22603;47.900;8.146;2023-06-10T10:19:36;7.93;;;4.35;;
36593;SDS011;22603;47.900;8.146;2023-06-10T10:22:34;8.23;;;4.55;;
36593;SDS011;22603;47.900;8.146;2023-06-10T10:25:26;9.27;;;4.90;;
36593;SDS011;22603;47.900;8.146;2023-06-10T10:28:16;8.25;;;4.15;;
36593;SDS011;22603;47.900;8.146;2023-06-10T10:31:08;8.30;;;4.07;;
36593;SDS011;22603;47.900;8.146;2023-06-10T10:33:58;9.05;;;4.70;;
36593;SDS011;22603;47.900;8.146;2023-06-10T10:36:47;9.55;;;4.82;;
36593;SDS011;22603;47.900;8.146;2023-06-10T10:39:36;9.23;;;4.65;;
36593;SDS011;22603;47.900;8.146;2023-06-10T10:42:24;8.77;;;4.80;;
36593;SDS011;22603;47.900;8.146;2023-06-10T10:45:12;12.07;;;4.60;;
36593;SDS011;22603;47.900;8.146;2023-06-10T10:48:02;9.65;;;4.88;;
36593;SDS011;22603;47.900;8.146;2023-06-10T10:50:55;9.57;;;5.15;;
36593;SDS011;22603;47.900;8.146;2023-06-10T10:53:45;12.23;;;4.80;;
36593;SDS011;22603;47.900;8.146;2023-06-10T11:00:05;9.82;;;4.53;;
36593;SDS011;22603;47.900;8.146;2023-06-10T11:02:58;10.00;;;4.70;;
36593;SDS011;22603;47.900;8.146;2023-06-10T11:05:50;9.93;;;4.38;;
36593;SDS011;22603;47.900;8.146;2023-06-10T11:08:49;8.90;;;4.57;;
36593;SDS011;22603;47.900;8.146;2023-06-10T11:11:36;10.02;;;4.80;;
36593;SDS011;22603;47.900;8.146;2023-06-10T11:14:36;10.80;;;4.55;;
36593;SDS011;22603;47.900;8.146;2023-06-10T11:17:24;11.45;;;4.70;;
36593;SDS011;22603;47.900;8.146;2023-06-10T11:20:11;9.13;;;4.43;;
36593;SDS011;22603;47.900;8.146;2023-06-10T11:22:59;10.20;;;4.70;;
36593;SDS011;22603;47.900;8.146;2023-06-10T11:25:49;9.48;;;4.40;;
36593;SDS011;22603;47.900;8.146;2023-06-10T11:28:36;9.45;;;4.47;;
36593;SDS011;22603;47.900;8.146;2023-06-10T11:31:23;9.95;;;4.22;;
36593;SDS011;22603;47.900;8.146;2023-06-10T11:34:12;8.38;;;4.13;;
36593;SDS011;22603;47.900;8.146;2023-06-10T11:37:00;9.52;;;4.10;;
36593;SDS011;22603;47.900;8.146;2023-06-10T11:39:51;8.88;;;4.30;;
36593;SDS011;22603;47.900;8.146;2023-06-10T11:42:41;8.10;;;4.15;;
36593;SDS011;22603;47.900;8.146;2023-06-10T11:45:29;9.05;;;4.80;;
36593;SDS011;22603;47.900;8.146;2023-06-10T11:48:16;8.45;;;4.10;;
36593;SDS011;22603;47.900;8.146;2023-06-10T11:51:05;8.43;;;3.90;;
36593;SDS011;22603;47.900;8.146;2023-06-10T11:53:53;9.27;;;4.30;;
36593;SDS011;22603;47.900;8.146;2023-06-10T11:56:40;8.43;;;4.35;;
36593;SDS011;22603;47.900;8.146;2023-06-10T11:59:29;8.68;;;4.35;;
36593;SDS011;22603;47.900;8.146;2023-06-10T12:02:17;9.35;;;4.55;;
36593;SDS011;22603;47.900;8.146;2023-06-10T12:05:11;9.20;;;4.35;;
36593;SDS011;22603;47.900;8.146;2023-06-10T12:08:08;9.65;;;4.47;;
36593;SDS011;22603;47.900;8.146;2023-06-10T12:10:56;9.07;;;4.38;;
36593;SDS011;22603;47.900;8.146;2023-06-10T12:13:45;8.48;;;3.97;;
36593;SDS011;22603;47.900;8.146;2023-06-10T12:16:36;8.77;;;4.38;;
36593;SDS011;22603;47.900;8.146;2023-06-10T12:19:25;8.30;;;4.38;;
36593;SDS011;22603;47.900;8.146;2023-06-10T12:22:15;8.57;;;4.35;;
36593;SDS011;22603;47.900;8.146;2023-06-10T12:25:05;7.72;;;4.13;;
36593;SDS011;22603;47.900;8.146;2023-06-10T12:27:54;8.77;;;4.60;;
36593;SDS011;22603;47.900;8.146;2023-06-10T12:30:42;9.93;;;4.10;;
36593;SDS011;22603;47.900;8.146;2023-06-10T12:33:31;8.63;;;3.78;;
36593;SDS011;22603;47.900;8.146;2023-06-10T12:36:18;8.98;;;4.60;;
36593;SDS011;22603;47.900;8.146;2023-06-10T12:39:06;9.93;;;4.20;;
36593;SDS011;22603;47.900;8.146;2023-06-10T12:41:53;7.70;;;4.07;;
36593;SDS011;22603;47.900;8.146;2023-06-10T12:44:41;7.57;;;3.92;;
36593;SDS011;22603;47.900;8.146;2023-06-10T12:47:29;12.45;;;3.90;;
36593;SDS011;22603;47.900;8.146;2023-06-10T12:50:19;8.73;;;3.97;;
36593;SDS011;22603;47.900;8.146;2023-06-10T12:53:06;7.40;;;3.70;;
36593;SDS011;22603;47.900;8.146;2023-06-10T12:55:54;9.20;;;4.32;;
36593;SDS011;22603;47.900;8.146;2023-06-10T12:58:43;8.10;;;3.90;;
36593;SDS011;22603;47.900;8.146;2023-06-10T13:01:31;8.63;;;4.07;;
36593;SDS011;22603;47.900;8.146;2023-06-10T13:04:20;8.35;;;4.35;;
36593;SDS011;22603;47.900;8.146;2023-06-10T13:07:10;7.50;;;3.78;;
36593;SDS011;22603;47.900;8.146;2023-06-10T13:10:00;8.07;;;4.25;;
36593;SDS011;22603;47.900;8.146;2023-06-10T13:12:48;7.95;;;3.83;;
36593;SDS011;22603;47.900;8.146;2023-06-10T13:15:35;10.32;;;4.70;;
36593;SDS011;22603;47.900;8.146;2023-06-10T13:18:27;8.00;;;3.97;;
36593;SDS011;22603;47.900;8.146;2023-06-10T13:21:15;7.93;;;3.72;;
36593;SDS011;22603;47.900;8.146;2023-06-10T13:24:05;8.30;;;4.20;;
36593;SDS011;22603;47.900;8.146;2023-06-10T13:26:52;8.32;;;4.45;;
36593;SDS011;22603;47.900;8.146;2023-06-10T13:29:42;8.98;;;4.68;;
36593;SDS011;22603;47.900;8.146;2023-06-10T13:32:30;8.40;;;4.10;;
36593;SDS011;22603;47.900;8.146;2023-06-10T13:35:20;8.68;;;3.88;;
36593;SDS011;22603;47.900;8.146;2023-06-10T13:38:08;9.18;;;4.03;;
36593;SDS011;22603;47.900;8.146;2023-06-10T13:40:57;7.40;;;3.83;;
36593;SDS011;22603;47.900;8.146;2023-06-10T13:43:49;7.38;;;2.70;;
36593;SDS011;22603;47.900;8.146;2023-06-10T13:46:37;5.88;;;2.80;;
36593;SDS011;22603;47.900;8.146;2023-06-10T13:49:24;9.20;;;3.70;;
36593;SDS011;22603;47.900;8.146;2023-06-10T13:52:11;6.45;;;3.08;;
36593;SDS011;22603;47.900;8.146;2023-06-10T13:54:59;7.32;;;2.95;;
36593;SDS011;22603;47.900;8.146;2023-06-10T13:57:48;6.72;;;3.10;;
36593;SDS011;22603;47.900;8.146;2023-06-10T14:00:35;8.60;;;3.72;;
36593;SDS011;22603;47.900;8.146;2023-06-10T14:03:23;8.75;;;3.83;;
36593;SDS011;22603;47.900;8.146;2023-06-10T14:06:11;8.40;;;3.70;;
36593;SDS011;22603;47.900;8.146;2023-06-10T14:09:04;7.35;;;3.13;;
36593;SDS011;22603;47.900;8.146;2023-06-10T14:23:53;7.72;;;3.17;;
36593;SDS011;22603;47.900;8.146;2023-06-10T14:26:41;10.15;;;3.70;;
36593;SDS011;22603;47.900;8.146;2023-06-10T14:29:28;8.23;;;3.30;;
36593;SDS011;22603;47.900;8.146;2023-06-10T14:32:16;6.15;;;3.05;;
36593;SDS011;22603;47.900;8.146;2023-06-10T14:35:04;7.10;;;3.15;;
36593;SDS011;22603;47.900;8.146;2023-06-10T14:37:51;9.20;;;3.50;;
36593;SDS011;22603;47.900;8.146;2023-06-10T14:40:40;8.70;;;3.55;;
36593;SDS011;22603;47.900;8.146;2023-06-10T14:43:27;5.88;;;2.67;;
36593;SDS011;22603;47.900;8.146;2023-06-10T14:46:14;6.97;;;3.08;;
36593;SDS011;22603;47.900;8.146;2023-06-10T14:49:00;5.45;;;2.63;;
36593;SDS011;22603;47.900;8.146;2023-06-10T14:51:48;7.28;;;3.00;;
36593;SDS011;22603;47.900;8.146;2023-06-10T14:54:35;8.20;;;2.75;;
36593;SDS011;22603;47.900;8.146;2023-06-10T14:57:23;6.03;;;2.80;;
36593;SDS011;22603;47.900;8.146;2023-06-10T15:00:11;6.32;;;2.90;;
36593;SDS011;22603;47.900;8.146;2023-06-10T15:03:00;5.75;;;2.58;;
36593;SDS011;22603;47.900;8.146;2023-06-10T15:05:48;6.55;;;2.50;;
36593;SDS011;22603;47.900;8.146;2023-06-10T15:08:35;5.28;;;2.40;;
36593;SDS011;22603;47.900;8.146;2023-06-10T15:11:22;5.65;;;2.13;;
36593;SDS011;22603;47.900;8.146;2023-06-10T15:14:13;5.00;;;2.15;;
36593;SDS011;22603;47.900;8.146;2023-06-10T15:17:00;9.85;;;2.47;;
36593;SDS011;22603;47.900;8.146;2023-06-10T15:19:47;7.38;;;2.80;;
36593;SDS011;22603;47.900;8.146;2023-06-10T15:22:34;5.43;;;2.38;;
36593;SDS011;22603;47.900;8.146;2023-06-10T15:25:22;6.43;;;2.70;;
36593;SDS011;22603;47.900;8.146;2023-06-10T15:28:16;5.85;;;2.42;;
36593;SDS011;22603;47.900;8.146;2023-06-10T15:31:05;7.60;;;2.40;;
36593;SDS011;22603;47.900;8.146;2023-06-10T15:33:52;5.18;;;2.40;;
36593;SDS011;22603;47.900;8.146;2023-06-10T15:36:39;5.13;;;2.40;;
36593;SDS011;22603;47.900;8.146;2023-06-10T15:39:27;6.55;;;2.80;;
36593;SDS011;22603;47.900;8.146;2023-06-10T15:42:16;5.97;;;2.50;;
36593;SDS011;22603;47.900;8.146;2023-06-10T15:45:03;5.65;;;2.53;;
36593;SDS011;22603;47.900;8.146;2023-06-10T15:47:53;6.22;;;2.58;;
36593;SDS011;22603;47.900;8.146;2023-06-10T15:50:41;5.40;;;2.60;;
36593;SDS011;22603;47.900;8.146;2023-06-10T15:53:29;7.65;;;2.42;;
36593;SDS011;22603;47.900;8.146;2023-06-10T15:56:16;8.73;;;2.90;;
36593;SDS011;22603;47.900;8.146;2023-06-10T15:59:06;6.93;;;2.78;;
36593;SDS011;22603;47.900;8.146;2023-06-10T16:01:54;7.80;;;2.50;;
36593;SDS011;22603;47.900;8.146;2023-06-10T16:04:42;6.50;;;2.70;;
36593;SDS011;22603;47.900;8.146;2023-06-10T16:07:29;9.30;;;2.63;;
36593;SDS011;22603;47.900;8.146;2023-06-10T16:10:16;5.70;;;2.65;;
36593;SDS011;22603;47.900;8.146;2023-06-10T16:13:04;6.50;;;3.00;;
36593;SDS011;22603;47.900;8.146;2023-06-10T16:15:51;5.80;;;2.47;;
36593;SDS011;22603;47.900;8.146;2023-06-10T16:18:38;7.93;;;2.72;;
36593;SDS011;22603;47.900;8.146;2023-06-10T16:21:26;7.28;;;2.80;;
36593;SDS011;22603;47.900;8.146;2023-06-10T16:24:14;9.52;;;2.80;;
36593;SDS011;22603;47.900;8.146;2023-06-10T16:27:01;8.80;;;3.05;;
36593;SDS011;22603;47.900;8.146;2023-06-10T16:29:49;8.73;;;3.40;;
36593;SDS011;22603;47.900;8.146;2023-06-10T16:32:36;5.78;;;2.88;;
36593;SDS011;22603;47.900;8.146;2023-06-10T16:35:23;7.13;;;3.00;;
36593;SDS011;22603;47.900;8.146;2023-06-10T16:38:11;7.03;;;2.55;;
36593;SDS011;22603;47.900;8.146;2023-06-10T16:40:59;11.80;;;4.00;;
36593;SDS011;22603;47.900;8.146;2023-06-10T16:43:46;6.55;;;2.90;;
36593;SDS011;22603;47.900;8.146;2023-06-10T16:46:33;7.28;;;3.17;;
36593;SDS011;22603;47.900;8.146;2023-06-10T16:49:20;6.38;;;3.08;;
36593;SDS011;22603;47.900;8.146;2023-06-10T16:52:07;5.55;;;2.72;;
36593;SDS011;22603;47.900;8.146;2023-06-10T16:54:56;5.18;;;2.70;;
36593;SDS011;22603;47.900;8.146;2023-06-10T16:57:42;6.53;;;2.97;;
36593;SDS011;22603;47.900;8.146;2023-06-10T17:00:29;7.10;;;3.33;;
36593;SDS011;22603;47.900;8.146;2023-06-10T17:03:17;6.07;;;2.80;;